Time;durP1;ratioP1;P1;durP2;ratioP2;P2;SDS_P1;SDS_P2;PMS_P1;PMS_P2;Temp;Humidity;BMP_temperature;BMP_pressure;BME280_temperature;BME280_humidity;BME280_pressure;Samples;Min_cycle;Max_cycle;Signal;HPM_P1;HPM_P2
2022/11/18 00:02:09;;;;;;;27.33;12.90;;;5.10;99.90;;;;;;5095395;28;20060;-77
2022/11/18 00:04:35;;;;;;;33.35;13.50;;;5.10;99.90;;;;;;5096503;28;20040;-76
2022/11/18 00:07:00;;;;;;;25.17;12.85;;;5.00;99.90;;;;;;5095626;28;20502;-76
2022/11/18 00:09:26;;;;;;;27.70;13.35;;;5.00;99.90;;;;;;5095252;28;20016;-77
2022/11/18 00:14:36;;;;;;;28.98;13.32;;;4.90;99.90;;;;;;5094881;28;20035;-77
2022/11/18 00:17:03;;;;;;;28.88;13.73;;;4.90;99.90;;;;;;5096125;28;20036;-81
2022/11/18 00:19:30;;;;;;;30.80;14.23;;;5.00;99.90;;;;;;5095318;28;20088;-79
2022/11/18 00:21:56;;;;;;;30.13;13.43;;;4.90;99.90;;;;;;5094638;28;20100;-82
2022/11/18 00:24:22;;;;;;;36.10;15.23;;;4.90;99.90;;;;;;5094613;28;20508;-79
2022/11/18 00:26:48;;;;;;;28.27;14.10;;;4.90;99.90;;;;;;5095608;28;20051;-81
2022/11/18 00:29:14;;;;;;;28.13;13.50;;;4.90;99.90;;;;;;5095583;28;20029;-79
2022/11/18 00:31:40;;;;;;;29.23;13.55;;;4.90;99.90;;;;;;5092188;28;20032;-83
2022/11/18 00:34:06;;;;;;;31.77;14.63;;;4.90;99.90;;;;;;5094922;28;20020;-84
2022/11/18 00:36:32;;;;;;;31.67;15.48;;;4.90;99.90;;;;;;5093818;28;20067;-81
2022/11/18 00:38:58;;;;;;;35.22;14.85;;;4.90;99.90;;;;;;5089697;28;20706;-82
2022/11/18 00:41:23;;;;;;;32.33;15.30;;;4.80;99.90;;;;;;5104635;28;20055;-82
2022/11/18 00:43:49;;;;;;;35.35;16.00;;;4.80;99.90;;;;;;5106183;28;20020;-81
2022/11/18 00:46:14;;;;;;;36.33;15.27;;;4.80;99.90;;;;;;5104513;28;20020;-81
2022/11/18 00:48:40;;;;;;;29.88;14.80;;;4.80;99.90;;;;;;5105902;28;20020;-82
2022/11/18 00:51:18;;;;;;;33.90;15.50;;;4.90;99.90;;;;;;5104623;28;20024;-82
2022/11/18 00:53:44;;;;;;;29.75;15.07;;;4.90;99.90;;;;;;5105798;28;20024;-78
2022/11/18 00:56:10;;;;;;;39.55;16.15;;;4.80;99.90;;;;;;5105924;28;20047;-81
2022/11/18 00:58:36;;;;;;;32.20;14.60;;;4.90;99.90;;;;;;5105808;28;20035;-78
2022/11/18 01:01:03;;;;;;;30.27;13.05;;;4.80;99.90;;;;;;5106188;28;20111;-81
2022/11/18 01:03:28;;;;;;;30.20;13.95;;;4.80;99.90;;;;;;5106070;28;20038;-81
2022/11/18 01:05:54;;;;;;;29.80;14.30;;;4.80;99.90;;;;;;5104247;28;20063;-79
2022/11/18 01:08:20;;;;;;;32.00;14.15;;;4.80;99.90;;;;;;5105474;28;20107;-81
2022/11/18 01:10:47;;;;;;;32.03;14.20;;;4.80;99.90;;;;;;5103005;28;20056;-81
2022/11/18 01:13:18;;;;;;;30.65;13.63;;;4.80;99.90;;;;;;5100325;28;20035;-83
2022/11/18 01:15:56;;;;;;;28.38;13.65;;;4.80;99.90;;;;;;5084936;28;20100;-82
2022/11/18 01:18:24;;;;;;;27.27;12.50;;;4.80;99.90;;;;;;5084100;28;20113;-80
2022/11/18 01:20:50;;;;;;;26.92;12.93;;;4.80;99.90;;;;;;5084489;28;20117;-82
2022/11/18 01:23:18;;;;;;;24.30;11.77;;;4.80;99.90;;;;;;5083476;28;20025;-82
2022/11/18 01:25:45;;;;;;;25.80;12.45;;;4.90;99.90;;;;;;5097433;28;20027;-83
2022/11/18 01:28:12;;;;;;;28.52;12.13;;;4.80;99.90;;;;;;5104965;28;20036;-79
2022/11/18 01:30:39;;;;;;;24.35;12.10;;;4.70;99.90;;;;;;5105394;28;20067;-82
2022/11/18 01:33:05;;;;;;;23.42;11.65;;;4.80;99.90;;;;;;5105133;28;20031;-81
2022/11/18 01:35:39;;;;;;;21.45;10.57;;;4.70;99.90;;;;;;5103846;28;20040;-80
2022/11/18 01:38:06;;;;;;;25.83;11.52;;;4.70;99.90;;;;;;5102987;28;20058;-80
2022/11/18 01:40:33;;;;;;;24.23;10.70;;;4.70;99.90;;;;;;5105332;28;20077;-78
2022/11/18 01:42:59;;;;;;;24.05;10.82;;;4.70;99.90;;;;;;5092253;28;20020;-80
2022/11/18 01:45:38;;;;;;;24.75;10.77;;;4.70;99.90;;;;;;5083147;28;20020;-79
2022/11/18 01:48:07;;;;;;;25.75;10.27;;;4.70;99.90;;;;;;5084777;28;20042;-79
2022/11/18 01:50:39;;;;;;;18.10;9.98;;;4.70;99.90;;;;;;5084228;28;20111;-81
2022/11/18 01:53:12;;;;;;;23.58;10.90;;;4.70;99.90;;;;;;5084564;28;20053;-80
2022/11/18 01:55:41;;;;;;;24.53;10.90;;;4.70;99.90;;;;;;5084662;28;20039;-79
2022/11/18 01:58:14;;;;;;;19.50;9.55;;;4.60;99.90;;;;;;5083183;28;20024;-80
2022/11/18 02:00:40;;;;;;;20.88;9.88;;;4.60;99.90;;;;;;5084560;28;20025;-81
2022/11/18 02:03:06;;;;;;;22.27;11.10;;;4.60;99.90;;;;;;5084669;28;20070;-81
2022/11/18 02:05:33;;;;;;;26.20;10.60;;;4.60;99.90;;;;;;5088286;28;20031;-80
2022/11/18 02:08:01;;;;;;;22.15;10.60;;;4.70;99.90;;;;;;5103450;28;20043;-82
2022/11/18 02:10:26;;;;;;;19.05;9.65;;;4.70;99.90;;;;;;5101520;28;20028;-83
2022/11/18 02:12:54;;;;;;;26.20;11.48;;;4.60;99.90;;;;;;5092119;28;20035;-81
2022/11/18 02:15:28;;;;;;;24.48;9.98;;;4.60;99.90;;;;;;5103027;28;20035;-78
2022/11/18 02:18:09;;;;;;;26.02;10.57;;;4.60;99.90;;;;;;5104192;28;20093;-80
2022/11/18 02:20:50;;;;;;;20.90;10.77;;;4.60;99.90;;;;;;5103878;28;20062;-82
2022/11/18 02:23:30;;;;;;;17.70;9.43;;;4.70;99.90;;;;;;5102139;28;20020;-82
2022/11/18 02:26:12;;;;;;;23.13;11.18;;;4.60;99.90;;;;;;5102075;28;20411;-82
2022/11/18 02:29:32;;;;;;;21.60;9.32;;;4.60;99.90;;;;;;5103467;28;20047;-80
2022/11/18 02:32:08;;;;;;;21.75;10.73;;;4.60;99.90;;;;;;5041201;28;20155;-80
2022/11/18 02:34:54;;;;;;;23.35;11.50;;;4.60;99.90;;;;;;5091401;28;20111;-83
2022/11/18 02:37:47;;;;;;;24.67;11.23;;;4.50;99.90;;;;;;5102893;28;20032;-77
2022/11/18 02:40:24;;;;;;;24.10;9.97;;;4.50;99.90;;;;;;5102997;28;20549;-82
2022/11/18 02:42:57;;;;;;;24.20;11.30;;;4.50;99.90;;;;;;5104345;28;20540;-81
2022/11/18 02:45:25;;;;;;;23.45;11.15;;;4.60;99.90;;;;;;5102834;28;20043;-80
2022/11/18 02:47:51;;;;;;;21.23;10.40;;;4.50;99.90;;;;;;5104306;28;20027;-79
2022/11/18 02:50:22;;;;;;;20.67;10.60;;;4.50;99.90;;;;;;5107783;28;20031;-80
2022/11/18 02:52:54;;;;;;;23.58;10.40;;;4.50;99.90;;;;;;5107827;28;20871;-76
2022/11/18 02:55:25;;;;;;;23.42;10.55;;;4.50;99.90;;;;;;5108529;28;20061;-79
2022/11/18 02:57:52;;;;;;;27.20;10.63;;;4.40;99.90;;;;;;5106659;28;20036;-80
2022/11/18 03:00:17;;;;;;;21.83;11.15;;;4.50;99.90;;;;;;5106693;28;20075;-79
2022/11/18 03:02:46;;;;;;;26.60;11.73;;;4.40;99.90;;;;;;5108481;28;20016;-82
2022/11/18 03:05:38;;;;;;;20.02;9.90;;;4.40;99.90;;;;;;5107630;28;20036;-78
2022/11/18 03:08:16;;;;;;;24.13;10.57;;;4.40;99.90;;;;;;5106846;28;20021;-80
2022/11/18 03:10:51;;;;;;;24.00;11.13;;;4.40;99.90;;;;;;5106884;28;20104;-78
2022/11/18 03:13:26;;;;;;;24.13;11.43;;;4.30;99.90;;;;;;5107872;28;20031;-80
2022/11/18 03:16:05;;;;;;;26.42;11.95;;;4.30;99.90;;;;;;5107548;28;20079;-79
2022/11/18 03:19:03;;;;;;;25.50;11.98;;;4.30;99.90;;;;;;5108041;28;20055;-78
2022/11/18 03:22:10;;;;;;;22.75;11.10;;;4.30;99.90;;;;;;5107372;28;20085;-78
2022/11/18 03:24:42;;;;;;;22.10;10.52;;;4.30;99.90;;;;;;5065178;28;20048;-79
2022/11/18 03:27:17;;;;;;;26.50;12.23;;;4.30;99.90;;;;;;5101805;28;20051;-80
2022/11/18 03:29:57;;;;;;;28.08;12.15;;;4.30;99.90;;;;;;5106513;28;20119;-78
2022/11/18 03:32:27;;;;;;;29.60;12.43;;;4.30;99.90;;;;;;5107491;28;20039;-81
2022/11/18 03:35:04;;;;;;;22.20;11.05;;;4.30;99.90;;;;;;5106197;28;20028;-79
2022/11/18 03:37:33;;;;;;;25.45;10.13;;;4.30;99.90;;;;;;5107501;28;20038;-79
2022/11/18 03:40:05;;;;;;;24.20;11.20;;;4.20;99.90;;;;;;5107642;28;20031;-79
2022/11/18 03:42:38;;;;;;;27.92;13.30;;;4.20;99.90;;;;;;5107427;28;20084;-78
2022/11/18 03:45:11;;;;;;;28.83;12.00;;;4.20;99.90;;;;;;5107441;28;20461;-78
2022/11/18 03:47:43;;;;;;;24.33;11.05;;;4.20;99.90;;;;;;5105614;28;20119;-81
2022/11/18 03:50:17;;;;;;;27.30;12.52;;;4.10;99.90;;;;;;5107332;28;20035;-81
2022/11/18 03:52:44;;;;;;;24.08;11.85;;;4.20;99.90;;;;;;5105826;28;20032;-80
2022/11/18 03:55:19;;;;;;;24.52;12.05;;;4.10;99.90;;;;;;5105458;28;20028;-77
2022/11/18 03:58:29;;;;;;;27.40;13.10;;;4.20;99.90;;;;;;5107346;28;20054;-80
2022/11/18 04:01:16;;;;;;;28.42;12.25;;;4.10;99.90;;;;;;5082114;28;20110;-78
2022/11/18 04:03:44;;;;;;;23.90;12.07;;;4.10;99.90;;;;;;5107073;28;20024;-81
2022/11/18 04:06:29;;;;;;;24.80;12.05;;;4.10;99.90;;;;;;5106948;28;20031;-78
2022/11/18 04:08:59;;;;;;;26.13;11.73;;;4.00;99.90;;;;;;5106691;28;20016;-78
2022/11/18 04:14:19;;;;;;;24.57;11.37;;;3.90;99.90;;;;;;5104349;28;20105;-79
2022/11/18 04:16:51;;;;;;;24.75;11.23;;;3.90;99.90;;;;;;5101983;28;20290;-78
2022/11/18 04:19:17;;;;;;;25.25;11.30;;;4.00;99.90;;;;;;5106600;28;20037;-81
2022/11/18 04:21:43;;;;;;;23.65;10.15;;;4.00;99.90;;;;;;5104460;28;20496;-78
2022/11/18 04:24:09;;;;;;;27.17;11.38;;;4.00;99.90;;;;;;5106538;28;20062;-81
2022/11/18 04:26:34;;;;;;;22.95;10.95;;;4.00;99.90;;;;;;5104961;28;20024;-81
2022/11/18 04:29:00;;;;;;;23.38;11.10;;;4.00;99.90;;;;;;5104506;28;20120;-80
2022/11/18 04:31:25;;;;;;;25.85;12.27;;;4.10;99.90;;;;;;5105957;28;20027;-77
2022/11/18 04:33:51;;;;;;;25.35;12.55;;;4.00;99.90;;;;;;5106317;28;20099;-79
2022/11/18 04:36:18;;;;;;;29.77;12.50;;;4.00;99.90;;;;;;5104906;28;20039;-78
2022/11/18 04:38:44;;;;;;;23.15;11.98;;;4.00;99.90;;;;;;5105863;28;20016;-78
2022/11/18 04:41:10;;;;;;;27.10;12.15;;;3.90;99.90;;;;;;5105614;28;20031;-81
2022/11/18 04:43:35;;;;;;;24.73;11.43;;;3.90;99.90;;;;;;5105977;28;20035;-79
2022/11/18 04:46:01;;;;;;;24.88;11.10;;;3.90;99.90;;;;;;5105045;28;20039;-80
2022/11/18 04:48:27;;;;;;;26.58;12.55;;;3.90;99.90;;;;;;5104796;28;20547;-79
2022/11/18 04:50:52;;;;;;;22.75;10.55;;;3.90;99.90;;;;;;5105942;28;20035;-79
2022/11/18 04:53:18;;;;;;;24.42;11.10;;;3.80;99.90;;;;;;5106242;28;20031;-77
2022/11/18 04:55:43;;;;;;;27.63;11.95;;;3.80;99.90;;;;;;5105294;28;20420;-79
2022/11/18 04:58:10;;;;;;;24.42;11.45;;;3.80;99.90;;;;;;5105787;28;20028;-78
2022/11/18 05:00:36;;;;;;;25.50;11.20;;;3.80;99.90;;;;;;5105882;28;20031;-76
2022/11/18 05:03:01;;;;;;;24.25;11.57;;;3.80;99.90;;;;;;5105970;28;20028;-76
2022/11/18 05:05:27;;;;;;;28.80;12.30;;;3.80;99.90;;;;;;5105757;28;20031;-78
2022/11/18 05:07:53;;;;;;;23.23;11.00;;;3.80;99.90;;;;;;5103948;28;20028;-80
2022/11/18 05:10:18;;;;;;;22.67;11.57;;;3.80;99.90;;;;;;5103817;28;20076;-79
2022/11/18 05:12:51;;;;;;;22.50;11.18;;;3.90;99.90;;;;;;5104820;28;20055;-77
2022/11/18 05:15:22;;;;;;;29.00;12.43;;;3.70;99.90;;;;;;5105716;28;20024;-74
2022/11/18 05:17:48;;;;;;;22.15;10.95;;;3.70;99.90;;;;;;5104230;28;20035;-80
2022/11/18 05:20:14;;;;;;;25.25;11.35;;;3.70;99.90;;;;;;5103931;28;20024;-78
2022/11/18 05:22:40;;;;;;;27.52;11.45;;;3.70;99.90;;;;;;5103173;28;20044;-77
2022/11/18 05:25:06;;;;;;;29.20;12.25;;;3.70;99.90;;;;;;5103835;28;20046;-77
2022/11/18 05:27:32;;;;;;;24.42;11.85;;;3.70;99.90;;;;;;5103978;28;20028;-79
2022/11/18 05:29:58;;;;;;;22.02;11.05;;;3.70;99.90;;;;;;5104640;28;20079;-80
2022/11/18 05:32:24;;;;;;;25.13;11.60;;;3.70;99.90;;;;;;5103406;28;20456;-75
2022/11/18 05:34:49;;;;;;;25.52;11.98;;;3.70;99.90;;;;;;5104682;28;20040;-76
2022/11/18 05:37:15;;;;;;;29.85;13.02;;;3.70;99.90;;;;;;5103268;28;20024;-77
2022/11/18 05:39:41;;;;;;;27.73;11.50;;;3.70;99.90;;;;;;5103679;28;20377;-76
2022/11/18 05:45:08;;;;;;;25.60;12.20;;;3.60;99.90;;;;;;5061471;28;20032;-75
2022/11/18 05:47:58;;;;;;;26.95;12.85;;;3.60;99.90;;;;;;5095721;28;20035;-76
2022/11/18 05:50:19;;;;;;;28.23;12.93;;;3.60;99.90;;;;;;5104534;28;20051;-75
2022/11/18 05:52:45;;;;;;;24.75;11.75;;;3.60;99.90;;;;;;5103460;28;20027;-76
2022/11/18 05:55:12;;;;;;;26.88;11.43;;;3.60;99.90;;;;;;5104263;28;20071;-76
2022/11/18 05:57:38;;;;;;;26.00;12.63;;;3.60;99.90;;;;;;5102743;28;20138;-77
2022/11/18 06:00:04;;;;;;;25.52;11.80;;;3.60;99.90;;;;;;5105048;28;20026;-75
2022/11/18 06:02:30;;;;;;;30.00;12.35;;;3.60;99.90;;;;;;5104918;28;20016;-77
2022/11/18 06:05:00;;;;;;;29.77;13.23;;;3.60;99.90;;;;;;5102726;28;20069;-75
2022/11/18 06:07:30;;;;;;;29.02;13.77;;;3.60;99.90;;;;;;5104348;28;20020;-76
2022/11/18 06:09:59;;;;;;;28.35;12.98;;;3.60;99.90;;;;;;5103622;28;20621;-77
2022/11/18 06:12:28;;;;;;;25.10;12.55;;;3.60;99.90;;;;;;5104230;28;20032;-77
2022/11/18 06:15:02;;;;;;;26.65;11.70;;;3.60;99.90;;;;;;5102695;28;20032;-75
2022/11/18 06:17:36;;;;;;;26.87;13.40;;;3.50;99.90;;;;;;5104671;28;20042;-76
2022/11/18 06:20:04;;;;;;;28.38;12.23;;;3.50;99.90;;;;;;5103417;28;20036;-77
2022/11/18 06:22:29;;;;;;;24.92;11.98;;;3.50;99.90;;;;;;5086186;28;20075;-76
2022/11/18 06:24:55;;;;;;;24.17;11.45;;;3.50;99.90;;;;;;5089084;28;20028;-76
2022/11/18 06:27:21;;;;;;;27.23;12.18;;;3.60;99.90;;;;;;5100077;28;20158;-76
2022/11/18 06:29:46;;;;;;;23.60;11.32;;;3.60;99.90;;;;;;5083968;28;20056;-76
2022/11/18 06:32:12;;;;;;;27.50;12.63;;;3.50;99.90;;;;;;5081993;28;20029;-76
2022/11/18 06:34:38;;;;;;;27.85;12.07;;;3.60;99.90;;;;;;5086043;28;20028;-76
2022/11/18 06:37:14;;;;;;;27.63;11.93;;;3.50;99.90;;;;;;5088381;28;20036;-76
2022/11/18 06:39:40;;;;;;;26.80;12.20;;;3.50;99.90;;;;;;5087078;28;20032;-77
2022/11/18 06:42:06;;;;;;;25.88;11.80;;;3.50;99.90;;;;;;5097892;28;20114;-76
2022/11/18 06:44:31;;;;;;;25.00;11.68;;;3.50;99.90;;;;;;5093603;28;20409;-76
2022/11/18 06:46:57;;;;;;;25.42;11.95;;;3.40;99.90;;;;;;5089701;28;20032;-76
2022/11/18 06:49:24;;;;;;;24.73;11.35;;;3.40;99.90;;;;;;5093388;28;20059;-78
2022/11/18 06:51:50;;;;;;;26.67;11.90;;;3.40;99.90;;;;;;5091916;28;20298;-76
2022/11/18 06:54:16;;;;;;;28.70;12.95;;;3.50;99.90;;;;;;5086708;28;20064;-75
2022/11/18 06:56:41;;;;;;;27.83;12.68;;;3.40;99.90;;;;;;5095920;28;20587;-76
2022/11/18 06:59:07;;;;;;;27.05;12.02;;;3.40;99.90;;;;;;5086907;28;20025;-76
2022/11/18 07:01:38;;;;;;;26.13;13.02;;;3.40;99.90;;;;;;5082070;28;20115;-77
2022/11/18 07:04:09;;;;;;;26.60;12.02;;;3.40;99.90;;;;;;5082940;28;20103;-80
2022/11/18 07:06:36;;;;;;;28.90;12.77;;;3.40;99.90;;;;;;5081036;28;20488;-75
2022/11/18 07:09:05;;;;;;;28.33;13.18;;;3.50;99.90;;;;;;5082096;28;20020;-76
2022/11/18 07:11:40;;;;;;;26.83;12.85;;;3.50;99.90;;;;;;5094781;28;20052;-77
2022/11/18 07:14:07;;;;;;;26.88;12.30;;;3.50;99.90;;;;;;5081419;28;20040;-77
2022/11/18 07:16:36;;;;;;;28.17;13.15;;;3.50;99.90;;;;;;5083270;28;20043;-77
2022/11/18 07:19:11;;;;;;;27.05;12.48;;;3.50;99.90;;;;;;5084244;28;20036;-77
2022/11/18 07:21:37;;;;;;;29.38;13.27;;;3.40;99.90;;;;;;5082069;28;20132;-77
2022/11/18 07:24:06;;;;;;;27.15;12.43;;;3.40;99.90;;;;;;5082695;28;20034;-77
2022/11/18 07:26:32;;;;;;;28.23;12.27;;;3.40;99.90;;;;;;5082487;28;20063;-76
2022/11/18 07:29:03;;;;;;;27.98;12.48;;;3.40;99.90;;;;;;5089183;28;20043;-77
2022/11/18 07:31:29;;;;;;;26.77;12.75;;;3.40;99.90;;;;;;5087204;28;20277;-75
2022/11/18 07:33:54;;;;;;;20.02;9.70;;;3.40;99.90;;;;;;5094891;28;20024;-74
2022/11/18 07:36:23;;;;;;;28.05;12.50;;;3.40;99.90;;;;;;5084653;28;20041;-74
2022/11/18 07:38:49;;;;;;;25.38;12.73;;;3.40;99.90;;;;;;5085755;28;20050;-74
2022/11/18 07:41:20;;;;;;;28.27;13.23;;;3.40;99.90;;;;;;5086335;28;20028;-75
2022/11/18 07:43:49;;;;;;;27.02;13.13;;;3.50;99.90;;;;;;5084910;28;20028;-75
2022/11/18 07:46:18;;;;;;;29.63;12.35;;;3.50;99.90;;;;;;5086659;28;20032;-77
2022/11/18 07:48:45;;;;;;;28.42;13.50;;;3.50;99.90;;;;;;5091682;28;20097;-75
2022/11/18 07:51:12;;;;;;;32.35;14.88;;;3.50;99.90;;;;;;5106674;28;20043;-76
2022/11/18 07:53:38;;;;;;;29.58;14.50;;;3.40;99.90;;;;;;5107332;28;20074;-74
2022/11/18 07:56:05;;;;;;;35.50;15.48;;;3.40;99.90;;;;;;5106914;28;20435;-75
2022/11/18 07:58:30;;;;;;;33.72;15.38;;;3.40;99.90;;;;;;5105002;28;20028;-74
2022/11/18 08:00:56;;;;;;;31.90;14.77;;;3.30;99.90;;;;;;5107175;28;20077;-73
2022/11/18 08:03:26;;;;;;;34.85;15.80;;;3.30;99.90;;;;;;5105242;28;20452;-73
2022/11/18 08:06:02;;;;;;;35.38;15.93;;;3.30;99.90;;;;;;5106522;28;20035;-75
2022/11/18 08:08:28;;;;;;;33.85;15.15;;;3.30;99.90;;;;;;5106836;28;20028;-73
2022/11/18 08:10:58;;;;;;;36.72;15.02;;;3.30;99.90;;;;;;5106426;28;20106;-73
2022/11/18 08:13:25;;;;;;;36.90;15.70;;;3.30;99.90;;;;;;5106333;28;20131;-75
2022/11/18 08:15:51;;;;;;;37.03;15.48;;;3.30;99.90;;;;;;5106354;28;20107;-76
2022/11/18 08:18:16;;;;;;;39.38;16.85;;;3.30;99.90;;;;;;5105671;28;20028;-77
2022/11/18 08:20:46;;;;;;;42.95;18.60;;;3.30;99.90;;;;;;5106497;28;20039;-75
2022/11/18 08:23:13;;;;;;;36.47;16.33;;;3.30;99.90;;;;;;5098529;28;20108;-74
2022/11/18 08:25:39;;;;;;;39.13;18.38;;;3.20;99.90;;;;;;5085282;28;20035;-76
2022/11/18 08:28:06;;;;;;;35.78;16.58;;;3.20;99.90;;;;;;5095825;28;20050;-76
2022/11/18 08:30:32;;;;;;;41.72;18.42;;;3.20;99.90;;;;;;5095165;28;20032;-75
2022/11/18 08:32:58;;;;;;;40.75;19.42;;;3.20;99.90;;;;;;5094083;28;20028;-75
2022/11/18 08:35:25;;;;;;;41.53;18.25;;;3.20;99.90;;;;;;5097087;28;20095;-75
2022/11/18 08:37:51;;;;;;;41.40;17.85;;;3.20;99.90;;;;;;5096076;28;20074;-75
2022/11/18 08:40:17;;;;;;;48.40;20.33;;;3.20;99.90;;;;;;5105070;28;20454;-77
2022/11/18 08:42:42;;;;;;;52.28;19.92;;;3.20;99.90;;;;;;5105507;28;20032;-76
2022/11/18 08:45:08;;;;;;;47.20;21.08;;;3.20;99.90;;;;;;5096634;28;20071;-76
2022/11/18 08:47:35;;;;;;;49.75;20.27;;;3.20;99.90;;;;;;5086072;28;20036;-75
2022/11/18 08:50:02;;;;;;;48.40;21.17;;;3.20;99.90;;;;;;5084628;28;20028;-76
2022/11/18 08:52:28;;;;;;;49.72;22.75;;;3.20;99.90;;;;;;5085743;28;20021;-76
2022/11/18 08:54:54;;;;;;;54.05;20.85;;;3.20;99.90;;;;;;5084871;28;20021;-74
2022/11/18 08:57:19;;;;;;;48.60;21.80;;;3.20;99.90;;;;;;5090376;28;20040;-76
2022/11/18 08:59:45;;;;;;;48.80;22.63;;;3.20;99.90;;;;;;5086705;28;20035;-76
2022/11/18 09:02:16;;;;;;;44.88;20.65;;;3.20;99.90;;;;;;5085688;28;20369;-75
2022/11/18 09:04:41;;;;;;;53.63;23.42;;;3.20;99.90;;;;;;5085598;28;20043;-75
2022/11/18 09:07:08;;;;;;;39.75;18.27;;;3.20;99.90;;;;;;5094574;28;20048;-76
2022/11/18 09:09:34;;;;;;;53.05;24.17;;;3.20;99.90;;;;;;5096582;28;20036;-76
2022/11/18 09:12:00;;;;;;;54.50;23.85;;;3.20;99.90;;;;;;5089511;28;20079;-77
2022/11/18 09:14:25;;;;;;;55.97;23.10;;;3.20;99.90;;;;;;5091117;28;20043;-75
2022/11/18 09:16:51;;;;;;;56.47;24.17;;;3.20;99.90;;;;;;5086039;28;20047;-75
2022/11/18 09:19:17;;;;;;;50.10;21.13;;;3.20;99.90;;;;;;5083840;28;20082;-75
2022/11/18 09:21:43;;;;;;;50.15;21.30;;;3.20;99.90;;;;;;5095242;28;20097;-75
2022/11/18 09:24:10;;;;;;;51.40;22.10;;;3.10;99.90;;;;;;5090912;28;20032;-76
2022/11/18 09:26:36;;;;;;;50.95;22.60;;;3.10;99.90;;;;;;5087634;28;20088;-76
2022/11/18 09:29:02;;;;;;;50.13;21.33;;;3.10;99.90;;;;;;5096373;28;20646;-75
2022/11/18 09:31:28;;;;;;;50.58;20.88;;;3.10;99.90;;;;;;5086742;28;20036;-75
2022/11/18 09:33:54;;;;;;;50.97;21.42;;;3.10;99.90;;;;;;5085991;28;20055;-75
2022/11/18 09:36:22;;;;;;;46.47;20.33;;;3.10;99.90;;;;;;5093865;28;20040;-75
2022/11/18 09:38:48;;;;;;;42.75;18.83;;;3.10;99.90;;;;;;5082328;28;20426;-76
2022/11/18 09:41:29;;;;;;;32.17;14.20;;;3.10;99.90;;;;;;5086511;28;20048;-80
2022/11/18 09:44:23;;;;;;;48.53;20.92;;;3.10;99.90;;;;;;5091592;28;20028;-76
2022/11/18 09:46:55;;;;;;;53.15;22.65;;;3.10;99.90;;;;;;5086915;28;20135;-74
2022/11/18 09:49:36;;;;;;;47.72;21.67;;;3.10;99.90;;;;;;5090428;28;20031;-76
2022/11/18 09:52:04;;;;;;;48.25;21.20;;;3.10;99.90;;;;;;5084400;28;20041;-76
2022/11/18 09:54:33;;;;;;;47.78;21.13;;;3.20;99.90;;;;;;5093473;28;20028;-76
2022/11/18 09:57:00;;;;;;;46.13;20.75;;;3.20;99.90;;;;;;5086077;28;20096;-76
2022/11/18 09:59:30;;;;;;;53.20;21.92;;;3.20;99.90;;;;;;5091820;28;20445;-76
2022/11/18 10:02:27;;;;;;;44.22;19.35;;;3.20;99.90;;;;;;5097548;28;20045;-75
2022/11/18 10:05:00;;;;;;;46.72;18.60;;;3.10;99.90;;;;;;5102549;28;20036;-76
2022/11/18 10:07:46;;;;;;;39.42;18.58;;;3.10;99.90;;;;;;5084427;28;20028;-77
2022/11/18 10:10:18;;;;;;;42.22;19.05;;;3.10;99.90;;;;;;5093700;28;20073;-78
2022/11/18 10:13:29;;;;;;;40.28;18.73;;;3.20;99.90;;;;;;5092325;28;20039;-78
2022/11/18 10:16:18;;;;;;;39.53;17.83;;;3.20;99.90;;;;;;5094471;28;20048;-78
2022/11/18 10:19:09;;;;;;;38.03;15.05;;;3.30;99.90;;;;;;5098752;28;20054;-73
2022/11/18 10:21:53;;;;;;;39.28;17.58;;;3.20;99.90;;;;;;5085494;28;20048;-78
2022/11/18 10:24:42;;;;;;;;;;;3.30;99.90;;;;;;5083421;28;20837;-77
2022/11/18 10:27:11;;;;;;;38.88;17.23;;;3.20;99.90;;;;;;5091495;28;19914;-75
2022/11/18 10:29:37;;;;;;;38.33;18.08;;;3.10;99.90;;;;;;5090757;28;20103;-76
2022/11/18 10:32:14;;;;;;;37.10;17.15;;;3.10;99.90;;;;;;5091836;28;20047;-76
2022/11/18 10:34:58;;;;;;;35.22;17.30;;;3.10;99.90;;;;;;5087568;28;20101;-75
2022/11/18 10:37:32;;;;;;;34.95;16.65;;;3.00;99.90;;;;;;5090422;28;20047;-75
2022/11/18 10:40:00;;;;;;;38.67;16.80;;;3.00;99.90;;;;;;5096297;28;20044;-75
2022/11/18 10:42:33;;;;;;;34.45;15.85;;;3.00;99.90;;;;;;5094563;28;20036;-75
2022/11/18 10:45:24;;;;;;;39.80;18.70;;;3.10;99.90;;;;;;5086349;28;20107;-75
2022/11/18 10:48:16;;;;;;;33.63;16.30;;;3.10;99.90;;;;;;5095685;28;20148;-76
2022/11/18 10:50:49;;;;;;;33.67;15.32;;;3.00;99.90;;;;;;5084591;28;20035;-77
2022/11/18 10:53:36;;;;;;;28.90;14.27;;;3.00;99.90;;;;;;5094755;28;20021;-76
2022/11/18 10:56:12;;;;;;;33.47;15.20;;;3.10;99.90;;;;;;5084418;28;20036;-76
2022/11/18 10:58:48;;;;;;;31.90;15.02;;;3.10;99.90;;;;;;5083623;28;20035;-78
2022/11/18 11:01:26;;;;;;;32.40;15.88;;;3.10;99.90;;;;;;5085138;28;20028;-77
2022/11/18 11:03:59;;;;;;;32.83;15.63;;;3.10;99.90;;;;;;5096406;28;20024;-77
2022/11/18 11:06:38;;;;;;;30.25;14.75;;;3.10;99.90;;;;;;5084154;28;20025;-77
2022/11/18 11:09:08;;;;;;;35.22;17.38;;;3.20;99.90;;;;;;5085701;28;20031;-79
2022/11/18 11:11:35;;;;;;;28.88;15.20;;;3.20;99.90;;;;;;5090688;28;20028;-77
2022/11/18 11:14:04;;;;;;;35.17;16.98;;;3.20;99.90;;;;;;5092477;28;20032;-75
2022/11/18 11:16:36;;;;;;;34.72;15.88;;;3.30;99.90;;;;;;5092919;28;20104;-76
2022/11/18 11:19:03;;;;;;;31.77;15.48;;;3.20;99.90;;;;;;5086342;28;20029;-76
2022/11/18 11:21:29;;;;;;;34.67;16.25;;;3.30;99.90;;;;;;5095831;28;20068;-76
2022/11/18 11:23:54;;;;;;;34.15;15.65;;;3.20;99.90;;;;;;5089340;28;20028;-75
2022/11/18 11:26:54;;;;;;;39.67;16.65;;;3.20;99.90;;;;;;5097445;28;20032;-77
2022/11/18 11:29:28;;;;;;;37.40;16.55;;;3.20;99.90;;;;;;5076426;28;20261;-76
2022/11/18 11:32:28;;;;;;;38.72;16.80;;;3.10;99.90;;;;;;5095588;28;20025;-76
2022/11/18 11:35:13;;;;;;;34.00;16.35;;;3.10;99.90;;;;;;5086384;28;20489;-74
2022/11/18 11:37:57;;;;;;;36.92;17.85;;;3.00;99.90;;;;;;5085742;28;20037;-75
2022/11/18 11:40:55;;;;;;;36.20;17.58;;;3.00;99.90;;;;;;5088062;28;20085;-74
2022/11/18 11:44:02;;;;;;;40.17;18.40;;;3.00;99.90;;;;;;5086401;28;20029;-76
2022/11/18 11:46:43;;;;;;;40.47;18.27;;;3.00;99.90;;;;;;5010848;28;20034;-76
2022/11/18 11:49:40;;;;;;;38.63;18.52;;;3.10;99.90;;;;;;5005846;28;20026;-78
2022/11/18 11:52:12;;;;;;;37.97;18.05;;;3.10;99.90;;;;;;5074855;28;20041;-74
2022/11/18 11:55:11;;;;;;;42.80;19.70;;;3.10;99.90;;;;;;5094603;28;20031;-76
2022/11/18 11:58:12;;;;;;;38.15;17.42;;;3.10;99.90;;;;;;5094372;28;20130;-76
2022/11/18 12:00:51;;;;;;;41.65;17.88;;;3.10;99.90;;;;;;5087385;28;20028;-77
2022/11/18 12:03:49;;;;;;;38.97;18.77;;;3.10;99.90;;;;;;5086377;28;20050;-77
2022/11/18 12:06:15;;;;;;;37.28;17.80;;;3.00;99.90;;;;;;5092389;28;20041;-75
2022/11/18 12:08:54;;;;;;;36.85;18.25;;;3.00;99.90;;;;;;5084684;28;20024;-76
2022/11/18 12:11:28;;;;;;;39.28;18.75;;;3.10;99.90;;;;;;5087619;28;20062;-76
2022/11/18 12:13:57;;;;;;;;;;;3.10;99.90;;;;;;5086628;28;20040;-76
2022/11/18 12:16:26;;;;;;;42.13;17.42;;;3.10;99.90;;;;;;5087047;28;19916;-79
2022/11/18 12:19:07;;;;;;;41.42;18.58;;;3.10;99.90;;;;;;5097356;28;20059;-74
2022/11/18 12:21:45;;;;;;;39.92;19.38;;;3.00;99.90;;;;;;5087654;28;20070;-76
2022/11/18 12:24:35;;;;;;;39.67;17.83;;;3.10;99.90;;;;;;5088687;28;20024;-77
2022/11/18 12:27:05;;;;;;;38.88;18.45;;;3.10;99.90;;;;;;5086493;28;20060;-77
2022/11/18 12:29:49;;;;;;;43.70;19.30;;;3.10;99.90;;;;;;5086587;28;20040;-77
2022/11/18 12:32:41;;;;;;;41.83;18.95;;;3.10;99.90;;;;;;5090092;28;20043;-76
2022/11/18 12:35:12;;;;;;;45.63;19.17;;;3.10;99.90;;;;;;5097764;28;20082;-77
2022/11/18 12:37:42;;;;;;;41.40;18.58;;;3.10;99.90;;;;;;5104207;28;20043;-76
2022/11/18 12:40:09;;;;;;;40.15;20.08;;;3.10;99.90;;;;;;5093963;28;20029;-77
2022/11/18 12:45:42;;;;;;;43.17;18.95;;;3.00;99.90;;;;;;5087103;28;20503;-76
2022/11/18 12:48:23;;;;;;;38.20;19.08;;;3.00;99.90;;;;;;5088720;28;20049;-75
2022/11/18 12:50:54;;;;;;;37.80;18.70;;;3.00;99.90;;;;;;5095222;28;20122;-75
2022/11/18 12:53:42;;;;;;;41.10;18.45;;;3.10;99.90;;;;;;5085670;28;20058;-75
2022/11/18 12:56:22;;;;;;;40.33;19.13;;;3.00;99.90;;;;;;5088386;28;20040;-75
2022/11/18 12:58:49;;;;;;;38.05;18.00;;;3.00;99.90;;;;;;5087728;28;20025;-77
2022/11/18 13:01:18;;;;;;;37.35;18.20;;;3.00;99.90;;;;;;5084564;28;20028;-81
2022/11/18 13:03:43;;;;;;;40.95;18.33;;;3.00;99.90;;;;;;5089931;28;20029;-76
2022/11/18 13:06:30;;;;;;;44.38;19.13;;;3.10;99.90;;;;;;5084505;28;20057;-76
2022/11/18 13:09:01;;;;;;;36.55;18.13;;;2.90;99.90;;;;;;5094864;28;20174;-78
2022/11/18 13:11:45;;;;;;;45.75;19.63;;;3.00;99.90;;;;;;5088912;28;20059;-76
2022/11/18 13:17:50;;;;;;;41.13;19.30;;;3.00;99.90;;;;;;5093667;28;20044;-75